createdAt,value
2022-11-28T00:01:17.496Z,12.68
2022-11-28T00:03:43.905Z,12.63
2022-11-28T00:06:10.506Z,13.15
2022-11-28T00:08:37.055Z,12.93
2022-11-28T00:11:04.201Z,13.30
2022-11-28T00:13:30.578Z,12.63
2022-11-28T00:16:00.887Z,12.98
2022-11-28T00:18:27.815Z,13.35
2022-11-28T00:21:07.665Z,12.60
2022-11-28T00:23:34.406Z,14.48
2022-11-28T00:26:01.802Z,13.43
2022-11-28T00:28:28.126Z,14.48
2022-11-28T00:30:54.488Z,14.10
2022-11-28T00:33:20.825Z,13.90
2022-11-28T00:35:47.196Z,13.50
2022-11-28T00:38:13.532Z,13.45
2022-11-28T00:40:39.909Z,12.85
2022-11-28T00:43:06.380Z,12.15
2022-11-28T00:45:32.732Z,13.10
2022-11-28T00:47:59.185Z,13.32
2022-11-28T00:50:25.735Z,13.90
2022-11-28T00:52:52.045Z,13.25
2022-11-28T00:55:18.394Z,13.23
2022-11-28T00:57:46.016Z,12.77
2022-11-28T01:00:12.604Z,13.25
2022-11-28T01:02:39.961Z,13.20
2022-11-28T01:05:06.630Z,13.25
2022-11-28T01:07:33.733Z,12.68
2022-11-28T01:10:00.128Z,13.18
2022-11-28T01:12:26.484Z,13.68
2022-11-28T01:14:53.588Z,13.20
2022-11-28T01:17:19.961Z,13.43
2022-11-28T01:19:46.251Z,13.30
2022-11-28T01:22:12.575Z,13.02
2022-11-28T01:24:39.038Z,13.40
2022-11-28T01:27:05.435Z,13.10
2022-11-28T01:29:31.865Z,13.18
2022-11-28T01:31:58.207Z,13.95
2022-11-28T01:34:24.805Z,13.15
2022-11-28T01:36:51.129Z,12.55
2022-11-28T01:39:17.412Z,13.02
2022-11-28T01:41:43.709Z,12.70
2022-11-28T01:44:13.062Z,13.65
2022-11-28T01:46:39.478Z,13.27
2022-11-28T01:49:08.690Z,13.25
2022-11-28T01:51:35.947Z,12.88
2022-11-28T01:54:02.637Z,12.20
2022-11-28T01:56:31.805Z,13.27
2022-11-28T01:59:01.732Z,13.05
2022-11-28T02:01:28.432Z,12.68
2022-11-28T02:03:55.413Z,13.57
2022-11-28T02:06:23.189Z,12.77
2022-11-28T02:08:53.235Z,12.57
2022-11-28T02:11:45.294Z,13.68
2022-11-28T02:14:25.619Z,13.40
2022-11-28T02:17:00.954Z,12.93
2022-11-28T02:19:40.898Z,12.98
2022-11-28T02:22:16.332Z,13.23
2022-11-28T02:25:00.194Z,12.45
2022-11-28T02:27:32.870Z,13.68
2022-11-28T02:30:08.514Z,13.25
2022-11-28T02:32:53.654Z,13.75
2022-11-28T02:35:26.528Z,12.75
2022-11-28T02:37:59.007Z,13.47
2022-11-28T02:40:29.099Z,13.50
2022-11-28T02:43:14.360Z,13.73
2022-11-28T02:46:03.847Z,13.65
2022-11-28T02:48:42.643Z,15.30
2022-11-28T02:51:18.535Z,13.90
2022-11-28T02:53:45.902Z,14.40
2022-11-28T02:56:12.976Z,14.38
2022-11-28T02:58:39.322Z,14.02
2022-11-28T03:01:07.224Z,13.75
2022-11-28T03:03:37.823Z,13.65
2022-11-28T03:06:07.195Z,14.23
2022-11-28T03:08:54.037Z,14.48
2022-11-28T03:11:35.551Z,13.95
2022-11-28T03:14:15.516Z,14.35
2022-11-28T03:17:08.272Z,15.23
2022-11-28T03:19:37.414Z,15.38
2022-11-28T03:22:07.396Z,14.63
2022-11-28T03:24:37.620Z,15.70
2022-11-28T03:27:19.311Z,15.77
2022-11-28T03:29:54.462Z,15.60
2022-11-28T03:32:25.895Z,16.45
2022-11-28T03:35:03.107Z,16.58
2022-11-28T03:37:32.580Z,16.83
2022-11-28T03:40:02.611Z,18.33
2022-11-28T03:42:32.330Z,17.48
2022-11-28T03:45:02.620Z,16.33
2022-11-28T03:47:32.522Z,16.77
2022-11-28T03:50:02.298Z,15.82
2022-11-28T03:52:29.902Z,16.80
2022-11-28T03:54:58.449Z,16.20
2022-11-28T03:57:30.310Z,16.88
2022-11-28T03:59:59.324Z,16.17
2022-11-28T04:02:36.131Z,15.95
2022-11-28T04:05:21.419Z,16.52
2022-11-28T04:07:59.282Z,15.88
2022-11-28T04:10:28.704Z,15.93
2022-11-28T04:12:59.132Z,17.27
2022-11-28T04:15:41.336Z,16.90
2022-11-28T04:18:21.073Z,16.77
2022-11-28T04:20:58.996Z,17.13
2022-11-28T04:23:26.002Z,16.55
2022-11-28T04:25:53.983Z,16.60
2022-11-28T04:28:23.003Z,16.35
2022-11-28T04:30:50.533Z,17.15
2022-11-28T04:33:18.960Z,17.15
2022-11-28T04:35:47.269Z,16.70
2022-11-28T04:38:14.040Z,16.65
2022-11-28T04:40:49.372Z,16.65
2022-11-28T04:43:22.184Z,16.35
2022-11-28T04:45:53.739Z,16.98
2022-11-28T04:48:20.382Z,15.93
2022-11-28T04:50:49.666Z,16.05
2022-11-28T04:53:20.729Z,16.88
2022-11-28T04:55:49.076Z,15.45
2022-11-28T04:58:21.812Z,16.40
2022-11-28T05:00:49.674Z,14.73
2022-11-28T05:03:16.566Z,15.68
2022-11-28T05:05:45.038Z,16.45
2022-11-28T05:08:11.556Z,15.25
2022-11-28T05:10:38.133Z,15.30
2022-11-28T05:13:04.501Z,16.23
2022-11-28T05:15:30.856Z,15.80
2022-11-28T05:17:57.335Z,15.32
2022-11-28T05:20:23.962Z,15.38
2022-11-28T05:22:50.350Z,15.65
2022-11-28T05:25:16.706Z,15.95
2022-11-28T05:27:43.049Z,15.90
2022-11-28T05:30:10.142Z,14.45
2022-11-28T05:32:36.640Z,15.88
2022-11-28T05:35:04.125Z,15.77
2022-11-28T05:37:30.599Z,15.55
2022-11-28T05:39:56.991Z,16.10
2022-11-28T05:42:23.387Z,15.85
2022-11-28T05:44:50.323Z,16.42
2022-11-28T05:47:16.726Z,16.25
2022-11-28T05:49:43.307Z,15.40
2022-11-28T05:52:09.783Z,16.17
2022-11-28T05:54:36.069Z,15.98
2022-11-28T05:57:02.764Z,15.90
2022-11-28T05:59:29.119Z,15.98
2022-11-28T06:01:55.450Z,15.43
2022-11-28T06:04:21.920Z,15.30
2022-11-28T06:06:49.325Z,15.20
2022-11-28T06:09:15.627Z,16.13
2022-11-28T06:11:41.995Z,15.32
2022-11-28T06:14:08.381Z,15.88
2022-11-28T06:16:34.767Z,16.02
2022-11-28T06:19:02.591Z,15.70
2022-11-28T06:21:29.323Z,15.93
2022-11-28T06:23:56.623Z,16.15
2022-11-28T06:26:23.618Z,15.77
2022-11-28T06:28:49.998Z,15.38
2022-11-28T06:31:20.872Z,17.38
2022-11-28T06:33:47.293Z,16.10
2022-11-28T06:36:14.108Z,15.90
2022-11-28T06:38:40.543Z,16.05
2022-11-28T06:41:07.819Z,16.20
2022-11-28T06:43:34.546Z,15.63
2022-11-28T06:46:00.985Z,16.42
2022-11-28T06:48:27.494Z,15.75
2022-11-28T06:50:53.935Z,16.27
2022-11-28T06:53:20.291Z,15.73
2022-11-28T06:55:47.261Z,16.23
2022-11-28T06:58:13.556Z,16.15
2022-11-28T07:00:39.859Z,16.73
2022-11-28T07:03:06.210Z,16.48
2022-11-28T07:05:32.560Z,16.42
2022-11-28T07:07:58.998Z,16.25
2022-11-28T07:10:26.224Z,16.10
2022-11-28T07:12:53.378Z,16.10
2022-11-28T07:15:19.662Z,17.85
2022-11-28T07:17:45.948Z,16.55
2022-11-28T07:20:12.523Z,16.70
2022-11-28T07:22:38.846Z,16.50
2022-11-28T07:25:05.426Z,17.00
2022-11-28T07:27:31.702Z,16.77
2022-11-28T07:29:57.978Z,17.10
2022-11-28T07:32:24.373Z,17.02
2022-11-28T07:34:50.684Z,17.00
2022-11-28T07:37:17.022Z,17.38
2022-11-28T07:39:44.631Z,16.25
2022-11-28T07:42:11.531Z,16.67
2022-11-28T07:44:38.099Z,16.60
2022-11-28T07:47:04.516Z,18.17
2022-11-28T07:49:30.880Z,17.05
2022-11-28T07:51:57.163Z,17.23
2022-11-28T07:54:23.496Z,18.17
2022-11-28T07:57:12.321Z,19.13
2022-11-28T07:59:36.167Z,18.33
2022-11-28T08:02:02.661Z,19.40
2022-11-28T08:04:29.135Z,18.23
2022-11-28T08:06:56.876Z,18.35
2022-11-28T08:09:23.250Z,17.38
2022-11-28T08:11:52.397Z,17.77
2022-11-28T08:14:18.751Z,19.50
2022-11-28T08:16:45.371Z,18.73
2022-11-28T08:19:11.917Z,18.70
2022-11-28T08:21:38.652Z,18.38
2022-11-28T08:24:05.605Z,19.05
2022-11-28T08:26:32.507Z,18.30
2022-11-28T08:28:59.555Z,18.02
2022-11-28T08:31:27.580Z,17.10
2022-11-28T08:33:54.999Z,16.75
2022-11-28T08:36:21.360Z,15.85
2022-11-28T08:39:03.228Z,15.63
2022-11-28T08:41:34.297Z,15.32
2022-11-28T08:44:00.648Z,16.13
2022-11-28T08:46:27.052Z,15.93
2022-11-28T08:48:53.487Z,15.40
2022-11-28T08:51:23.703Z,14.60
2022-11-28T08:53:53.705Z,14.65
2022-11-28T08:56:22.762Z,15.23
2022-11-28T08:58:49.112Z,15.10
2022-11-28T09:01:16.807Z,15.63
2022-11-28T09:03:43.359Z,16.08
2022-11-28T09:06:09.721Z,16.23
2022-11-28T09:08:36.020Z,14.43
2022-11-28T09:11:02.332Z,14.88
2022-11-28T09:13:28.626Z,15.35
2022-11-28T09:15:55.329Z,14.73
2022-11-28T09:18:21.811Z,15.18
2022-11-28T09:20:48.212Z,15.88
2022-11-28T09:23:14.560Z,14.68
2022-11-28T09:25:40.888Z,14.93
2022-11-28T09:28:07.191Z,15.65
2022-11-28T09:30:33.901Z,16.02
2022-11-28T09:33:00.290Z,15.15
2022-11-28T09:35:26.652Z,16.27
2022-11-28T09:37:52.971Z,17.48
2022-11-28T09:40:28.809Z,16.85
2022-11-28T09:42:55.778Z,17.98
2022-11-28T09:45:23.197Z,16.48
2022-11-28T09:47:50.636Z,15.15
2022-11-28T09:50:38.123Z,15.30
2022-11-28T09:53:23.295Z,14.48
2022-11-28T09:55:50.845Z,14.80
2022-11-28T09:58:29.341Z,14.63
2022-11-28T10:01:10.975Z,14.10
2022-11-28T10:03:56.041Z,14.23
2022-11-28T10:06:25.525Z,14.68
2022-11-28T10:08:51.808Z,14.15
2022-11-28T10:11:31.164Z,13.30
2022-11-28T10:14:09.811Z,14.63
2022-11-28T10:16:53.348Z,14.88
2022-11-28T10:19:52.804Z,14.32
2022-11-28T10:22:15.561Z,14.60
2022-11-28T10:24:44.924Z,14.98
2022-11-28T10:27:13.632Z,14.38
2022-11-28T10:29:59.036Z,15.65
2022-11-28T10:32:31.741Z,15.13
2022-11-28T10:34:59.683Z,15.15
2022-11-28T10:37:27.217Z,14.98
2022-11-28T10:39:54.739Z,18.23
2022-11-28T10:42:32.464Z,16.17
2022-11-28T10:45:17.902Z,14.15
2022-11-28T10:47:47.300Z,15.43
2022-11-28T10:50:32.239Z,16.23
2022-11-28T10:52:58.738Z,16.00
2022-11-28T10:55:48.025Z,16.00
2022-11-28T10:58:24.478Z,15.88
2022-11-28T11:00:55.307Z,15.50
2022-11-28T11:03:26.111Z,16.45
2022-11-28T11:05:52.407Z,16.05
2022-11-28T11:08:26.023Z,15.38
2022-11-28T11:10:52.540Z,16.38
2022-11-28T11:13:27.638Z,15.98
2022-11-28T11:16:02.304Z,16.20
2022-11-28T11:18:30.863Z,16.05
2022-11-28T11:21:12.450Z,16.25
2022-11-28T11:23:38.901Z,15.20
2022-11-28T11:26:05.907Z,15.27
2022-11-28T11:28:32.232Z,15.98
2022-11-28T11:31:00.476Z,15.90
2022-11-28T11:33:30.138Z,17.42
2022-11-28T11:35:56.559Z,16.02
2022-11-28T11:38:23.180Z,16.52
2022-11-28T11:40:50.243Z,15.85
2022-11-28T11:43:26.240Z,17.67
2022-11-28T11:46:04.789Z,18.90
2022-11-28T11:48:35.645Z,17.40
2022-11-28T11:51:01.979Z,16.52
2022-11-28T11:53:28.304Z,16.17
2022-11-28T11:55:55.722Z,17.83
2022-11-28T11:58:23.610Z,17.38
2022-11-28T12:00:51.826Z,16.65
2022-11-28T12:03:28.638Z,18.30
2022-11-28T12:06:13.681Z,17.45
2022-11-28T12:08:43.929Z,17.73
2022-11-28T12:11:29.124Z,16.73
2022-11-28T12:13:57.146Z,17.67
2022-11-28T12:16:50.535Z,17.30
2022-11-28T12:19:39.395Z,16.60
2022-11-28T12:22:24.502Z,18.50
2022-11-28T12:25:07.986Z,16.90
2022-11-28T12:27:41.298Z,18.48
2022-11-28T12:30:26.113Z,17.77
2022-11-28T12:33:05.393Z,19.50
2022-11-28T12:35:47.239Z,18.23
2022-11-28T12:38:31.284Z,18.45
2022-11-28T12:40:57.620Z,18.02
2022-11-28T12:43:41.259Z,17.73
2022-11-28T12:46:26.630Z,19.30
2022-11-28T12:49:07.306Z,18.98
2022-11-28T12:51:52.449Z,18.48
2022-11-28T12:54:18.817Z,20.35
2022-11-28T12:57:03.243Z,19.75
2022-11-28T12:59:37.079Z,19.70
2022-11-28T13:04:48.145Z,19.20
2022-11-28T13:07:27.385Z,19.30
2022-11-28T13:10:12.517Z,19.63
2022-11-28T13:12:56.695Z,18.92
2022-11-28T13:17:49.474Z,21.20
2022-11-28T13:20:15.719Z,21.73
2022-11-28T13:22:53.492Z,22.27
2022-11-28T13:25:24.649Z,23.13
2022-11-28T13:27:50.938Z,23.02
2022-11-28T13:30:22.382Z,23.13
2022-11-28T13:32:56.527Z,25.23
2022-11-28T13:35:23.569Z,26.17
2022-11-28T13:40:48.162Z,27.77
2022-11-28T13:43:24.268Z,28.33
2022-11-28T13:45:52.554Z,25.80
2022-11-28T13:49:06.162Z,26.20
2022-11-28T13:51:28.709Z,29.42
2022-11-28T13:54:15.873Z,30.02
2022-11-28T13:56:42.449Z,33.58
2022-11-28T13:59:16.615Z,29.70
2022-11-28T14:01:47.958Z,25.95
2022-11-28T14:04:15.321Z,27.10
2022-11-28T14:06:42.391Z,28.45
2022-11-28T14:09:29.064Z,32.42
2022-11-28T14:12:01.667Z,32.13
2022-11-28T14:14:34.433Z,29.20
2022-11-28T14:17:04.721Z,28.08
2022-11-28T14:19:50.337Z,27.60
2022-11-28T14:22:35.458Z,31.40
2022-11-28T14:25:11.660Z,31.98
2022-11-28T14:27:40.659Z,36.00
2022-11-28T14:30:07.763Z,32.53
2022-11-28T14:32:34.283Z,29.45
2022-11-28T14:35:01.287Z,28.73
2022-11-28T14:37:34.672Z,28.27
2022-11-28T14:40:01.013Z,29.15
2022-11-28T14:42:59.026Z,27.98
2022-11-28T14:45:32.791Z,27.88
2022-11-28T14:48:17.503Z,26.73
2022-11-28T14:50:54.724Z,27.45
2022-11-28T14:53:33.699Z,27.98
2022-11-28T14:56:15.369Z,28.90
2022-11-28T14:58:47.087Z,27.98
2022-11-28T15:01:16.182Z,29.10
2022-11-28T15:03:53.625Z,28.77
2022-11-28T15:06:22.651Z,28.27
2022-11-28T15:08:53.682Z,29.35
2022-11-28T15:11:29.116Z,29.33
2022-11-28T15:13:55.494Z,27.83
2022-11-28T15:16:23.871Z,30.40
2022-11-28T15:19:04.395Z,31.63
2022-11-28T15:21:41.692Z,30.13
2022-11-28T15:24:15.129Z,31.33
2022-11-28T15:26:41.834Z,30.70
2022-11-28T15:29:18.525Z,29.55
2022-11-28T15:31:46.662Z,27.55
2022-11-28T15:34:21.464Z,28.63
2022-11-28T15:36:50.621Z,27.75
2022-11-28T15:39:24.188Z,28.58
2022-11-28T15:41:50.835Z,27.67
2022-11-28T15:44:18.040Z,28.40
2022-11-28T15:46:44.720Z,28.90
2022-11-28T15:49:24.566Z,28.42
2022-11-28T15:51:52.520Z,28.90
2022-11-28T15:54:27.342Z,29.38
2022-11-28T15:57:00.478Z,27.25
2022-11-28T15:59:27.971Z,29.02
2022-11-28T16:01:59.242Z,29.73
2022-11-28T16:04:26.043Z,29.15
2022-11-28T16:06:56.654Z,30.48
2022-11-28T16:09:26.314Z,29.70
2022-11-28T16:11:53.466Z,30.77
2022-11-28T16:14:30.901Z,29.98
2022-11-28T16:16:58.013Z,30.05
2022-11-28T16:19:34.713Z,29.52
2022-11-28T16:22:02.247Z,30.98
2022-11-28T16:24:59.962Z,31.25
2022-11-28T16:27:37.234Z,30.75
2022-11-28T16:30:23.579Z,33.15
2022-11-28T16:32:50.438Z,32.95
2022-11-28T16:35:28.070Z,33.08
2022-11-28T16:38:03.433Z,34.22
2022-11-28T16:40:29.790Z,34.65
2022-11-28T16:42:56.439Z,35.88
2022-11-28T16:45:27.183Z,34.17
2022-11-28T16:48:13.824Z,34.15
2022-11-28T16:50:51.746Z,34.10
2022-11-28T16:53:36.972Z,36.60
2022-11-28T16:56:03.291Z,36.05
2022-11-28T16:58:29.582Z,35.17
2022-11-28T17:01:01.100Z,35.83
2022-11-28T17:03:41.488Z,35.08
2022-11-28T17:06:28.718Z,35.45
2022-11-28T17:08:58.098Z,33.58
2022-11-28T17:11:26.620Z,33.90
2022-11-28T17:13:57.237Z,38.40
2022-11-28T17:16:24.574Z,40.35
2022-11-28T17:18:51.180Z,36.58
2022-11-28T17:21:21.500Z,35.85
2022-11-28T17:23:47.832Z,36.90
2022-11-28T17:26:14.185Z,35.65
2022-11-28T17:28:40.482Z,38.22
2022-11-28T17:31:06.986Z,37.63
2022-11-28T17:33:33.313Z,34.88
2022-11-28T17:36:00.197Z,35.63
2022-11-28T17:38:26.642Z,36.10
2022-11-28T17:40:53.305Z,38.67
2022-11-28T17:43:21.526Z,37.00
2022-11-28T17:45:48.882Z,37.17
2022-11-28T17:48:16.133Z,35.00
2022-11-28T17:50:44.175Z,36.78
2022-11-28T17:53:13.782Z,38.08
2022-11-28T17:55:40.851Z,38.72
2022-11-28T17:58:08.399Z,38.80
2022-11-28T18:00:35.352Z,39.33
2022-11-28T18:03:01.732Z,38.08
2022-11-28T18:05:28.040Z,35.75
2022-11-28T18:07:54.775Z,36.90
2022-11-28T18:10:21.174Z,35.78
2022-11-28T18:12:47.555Z,35.58
2022-11-28T18:15:13.911Z,36.67
2022-11-28T18:17:40.264Z,37.33
2022-11-28T18:20:07.197Z,37.58
2022-11-28T18:22:33.571Z,36.63
2022-11-28T18:24:59.957Z,37.25
2022-11-28T18:27:26.394Z,37.05
2022-11-28T18:29:54.077Z,34.33
2022-11-28T18:32:20.451Z,35.20
2022-11-28T18:34:46.979Z,33.58
2022-11-28T18:37:14.092Z,33.60
2022-11-28T18:39:40.380Z,34.53
2022-11-28T18:42:06.893Z,34.00
2022-11-28T18:44:33.585Z,34.63
2022-11-28T18:46:59.950Z,36.00
2022-11-28T18:49:27.132Z,35.45
2022-11-28T18:51:54.813Z,35.92
2022-11-28T18:54:21.860Z,34.90
2022-11-28T18:56:48.740Z,35.97
2022-11-28T18:59:15.838Z,36.28
2022-11-28T19:01:42.285Z,34.30
2022-11-28T19:04:09.989Z,35.05
2022-11-28T19:06:38.604Z,35.40
2022-11-28T19:09:05.978Z,34.22
2022-11-28T19:11:32.353Z,35.42
2022-11-28T19:13:58.800Z,35.85
2022-11-28T19:16:27.476Z,35.60
2022-11-28T19:18:55.266Z,36.15
2022-11-28T19:21:24.232Z,36.30
2022-11-28T19:23:50.748Z,35.63
2022-11-28T19:26:18.687Z,33.65
2022-11-28T19:28:44.990Z,33.15
2022-11-28T19:31:16.293Z,33.67
2022-11-28T19:33:43.636Z,34.10
2022-11-28T19:36:11.712Z,34.92
2022-11-28T19:38:38.449Z,34.10
2022-11-28T19:41:15.077Z,35.22
2022-11-28T19:43:42.683Z,33.50
2022-11-28T19:46:10.129Z,37.97
2022-11-28T19:48:38.522Z,62.72
2022-11-28T19:51:05.816Z,48.72
2022-11-28T19:53:34.108Z,50.13
2022-11-28T19:56:04.763Z,64.85
2022-11-28T19:58:31.514Z,42.35
2022-11-28T20:01:08.996Z,40.53
2022-11-28T20:03:36.224Z,37.95
2022-11-28T20:06:06.324Z,36.45
2022-11-28T20:08:32.704Z,33.17
2022-11-28T20:11:05.896Z,33.35
2022-11-28T20:13:33.671Z,32.72
2022-11-28T20:16:07.064Z,32.03
2022-11-28T20:18:33.471Z,31.85
2022-11-28T20:21:19.236Z,31.05
2022-11-28T20:23:50.683Z,32.10
2022-11-28T20:26:18.435Z,30.80
2022-11-28T20:28:45.396Z,31.17
2022-11-28T20:31:19.981Z,33.33
2022-11-28T20:33:47.182Z,31.52
2022-11-28T20:36:16.335Z,31.50
2022-11-28T20:38:42.731Z,31.50
2022-11-28T20:41:09.593Z,30.65
2022-11-28T20:43:36.755Z,30.38
2022-11-28T20:46:04.011Z,30.65
2022-11-28T20:48:30.544Z,31.05
2022-11-28T20:50:57.030Z,30.33
2022-11-28T20:53:26.781Z,32.95
2022-11-28T20:56:03.649Z,31.85
2022-11-28T20:58:30.806Z,32.17
2022-11-28T21:00:57.205Z,30.23
2022-11-28T21:03:24.191Z,31.85
2022-11-28T21:05:50.616Z,30.23
2022-11-28T21:08:16.986Z,37.20
2022-11-28T21:10:43.566Z,37.58
2022-11-28T21:13:10.032Z,47.25
2022-11-28T21:15:41.023Z,47.28
2022-11-28T21:18:07.548Z,53.00
2022-11-28T21:20:33.838Z,54.75
2022-11-28T21:23:00.143Z,33.55
2022-11-28T21:25:26.438Z,31.70
2022-11-28T21:27:52.776Z,31.80
2022-11-28T21:30:19.143Z,35.45
2022-11-28T21:32:46.600Z,36.03
2022-11-28T21:35:12.944Z,40.67
2022-11-28T21:37:39.288Z,37.35
2022-11-28T21:40:06.025Z,38.72
2022-11-28T21:42:32.399Z,41.50
2022-11-28T21:44:58.740Z,42.25
2022-11-28T21:47:25.144Z,43.33
2022-11-28T21:49:52.859Z,43.30
2022-11-28T21:52:23.363Z,46.13
2022-11-28T21:54:51.665Z,44.65
2022-11-28T21:57:18.422Z,44.35
2022-11-28T21:59:45.051Z,44.50
2022-11-28T22:02:14.130Z,43.85
2022-11-28T22:04:41.040Z,44.40
2022-11-28T22:07:07.561Z,44.25
2022-11-28T22:09:34.064Z,42.20
2022-11-28T22:12:00.865Z,42.88
2022-11-28T22:14:35.119Z,42.83
2022-11-28T22:17:03.047Z,40.78
2022-11-28T22:19:29.370Z,39.88
2022-11-28T22:21:56.507Z,41.45
2022-11-28T22:24:23.979Z,39.67
2022-11-28T22:26:50.461Z,39.58
2022-11-28T22:29:17.821Z,37.70
2022-11-28T22:31:44.317Z,37.70
2022-11-28T22:34:11.146Z,36.45
2022-11-28T22:36:37.616Z,36.17
2022-11-28T22:39:04.049Z,35.25
2022-11-28T22:41:30.714Z,34.45
2022-11-28T22:44:01.258Z,33.13
2022-11-28T22:46:29.250Z,33.40
2022-11-28T22:48:58.800Z,34.03
2022-11-28T22:51:25.634Z,34.38
2022-11-28T22:53:54.287Z,34.67
2022-11-28T22:56:20.729Z,32.72
2022-11-28T22:58:47.231Z,31.65
2022-11-28T23:01:21.683Z,32.50
2022-11-28T23:03:48.339Z,30.58
2022-11-28T23:06:16.164Z,30.60
2022-11-28T23:08:42.841Z,30.92
2022-11-28T23:11:10.693Z,30.63
2022-11-28T23:13:37.577Z,30.65
2022-11-28T23:16:14.729Z,30.50
2022-11-28T23:18:42.154Z,29.65
2022-11-28T23:21:08.962Z,30.27
2022-11-28T23:23:35.358Z,31.65
2022-11-28T23:26:05.198Z,30.25
2022-11-28T23:28:32.336Z,28.95
2022-11-28T23:31:06.133Z,30.38
2022-11-28T23:33:32.792Z,28.75
2022-11-28T23:35:59.245Z,28.85
2022-11-28T23:38:26.088Z,28.77
2022-11-28T23:40:56.678Z,29.98
2022-11-28T23:43:23.079Z,28.15
2022-11-28T23:45:49.482Z,29.45
2022-11-28T23:48:16.385Z,30.10
2022-11-28T23:50:42.850Z,31.73
2022-11-28T23:53:09.260Z,30.92
2022-11-28T23:55:35.560Z,30.23
2022-11-28T23:58:02.286Z,30.90
